Archival Weather

NSFA McMurdo Sound

NSFA McMurdo Sound, Antarctica (NZCM)

Report from: Saturday, February 24, 2024 3:55 AM UTC
Current time: Friday, June 14, 2024 12:52 PM UTC

Current weather – Weather history – Daily summaries
Weather forecast

Temperature-14.8°C (5.4°F)
Wind chill-24.0°C (-11.1°F)
Dew point-30.5°C (-22.9°F)
Winds 11 kts (5.7 m/s, 12.7 mph) Northeast (40°)
Visibility6.2 mi. (10 km)
Clouds Scattered clouds 7,500 ft. (2,286 m)
Altimeter29.23 in.Hg (990 mB)
Relative humidity25 %
Density altitude-2,956 ft. (-901 m)
Sea-level pressure99.0 kPa (990 mB, 29.25 in.Hg)
Remarks Fully automated report
Automated weather observing station with precipitation discriminator
Flight conditions Visual Meteorological Conditions
Raw dataNZCM 240355Z AUTO 04011KT 9999 SCT075 M15/M31 A2923 RMK AO2 SLP904 T11481305
An error has occurred. This application may no longer respond until reloaded. Reload 🗙